Flight Track Log - Related Links

Times and Time Zones

All times are in EDT time to prevent confusion due to time zone crossing. See the SWA3924 flight status page for this flight to view local times or setup timezone preferences in your user account.

Time Position Orientation Groundspeed Altitude Reporting Facility
EDT Latitude Longitude Course Direction KTS MPH feet Rate Location/Type
Thu 11:36:51 AM 24.5753 -81.7294 34° Northeast 208 239 2,400  Level Miami Center
Thu 11:37:51 AM 24.6356 -81.7319 358° North 263 303 5,500 3,650 Climbing Miami Center
Thu 11:38:51 AM 24.7128 -81.7328 359° North 290 334 9,700 3,650 Climbing Miami Center
Thu 11:39:51 AM 24.8006 -81.7339 359° North 290 334 12,800 3,350 Climbing Miami Center
Thu 11:40:51 AM 24.8967 -81.7353 359° North 320 368 16,400 3,300 Climbing Miami Center
Thu 11:41:51 AM 25.0008 -81.7394 358° North 350 403 19,400 3,200 Climbing Miami Center
Thu 11:42:00 AM 24.9984 -81.4095 34° Northeast  Level FlightAware Approximate
Thu 11:42:51 AM 25.1053 -81.7414 359° North 370 426 22,800  Level Miami Center
Thu 11:43:51 AM 25.2136 -81.7433 359° North 375 432 25,900 1,600 Climbing Miami Center
Thu 11:44:51 AM 25.3200 -81.7478 358° North 375 432 26,000 50 Climbing Miami Center
Thu 11:45:51 AM 25.4203 -81.7494 359° North 375 432 26,000  Level Miami Center
Thu 11:46:51 AM 25.5267 -81.7514 359° North 375 432 26,000 -500 Level Miami Center
Thu 11:47:51 AM 25.6331 -81.7533 359° North 375 432 25,000 -1,000 Descending Miami Center
Thu 11:48:51 AM 25.7372 -81.7578 358° North 375 432 24,000 -1,000 Descending Miami Center
Thu 11:49:51 AM 25.8375 -81.7594 359° North 370 426 23,000 -1,000 Descending Miami Center
Thu 11:50:51 AM 25.9356 -81.7611 359° North 358 412 22,000 -500 Descending Miami Center
Thu 11:51:51 AM 26.0358 -81.7628 359° North 348 400 22,000  Level Miami Center
Thu 11:52:51 AM 26.1339 -81.7647 359° North 348 400 22,000  Level Miami Center
Thu 11:53:51 AM 26.2339 -81.7689 358° North 348 400 22,000  Level Miami Center
Thu 11:54:51 AM 26.3300 -81.7706 359° North 348 400 22,000  Level Miami Center
Thu 11:55:51 AM 26.4300 -81.7744 358° North 348 400 22,000  Level Miami Center
Thu 11:56:51 AM 26.5300 -81.7764 359° North 348 400 22,000  Level Miami Center
Thu 11:57:51 AM 26.6283 -81.7758 360° North 348 400 22,000  Level Miami Center
Thu 11:58:51 AM 26.7264 -81.7731 North 348 400 22,000  Level Miami Center
Thu 11:59:51 AM 26.8289 -81.7703 North 348 400 22,000  Level Miami Center
Thu 12:00:51 PM 26.9269 -81.7697 360° North 348 400 22,000  Level Miami Center
Thu 12:01:51 PM 27.0314 -81.7672 North 358 412 22,000  Level Miami Center
Thu 12:02:51 PM 27.1317 -81.7644 North 363 418 22,000  Level Miami Center
Thu 12:03:51 PM 27.2403 -81.7619 North 363 418 22,000 -100 Level Miami Center
Thu 12:04:51 PM 27.3406 -81.7617 360° North 363 418 21,800 -550 Descending Miami Center
Thu 12:05:51 PM 27.4389 -81.7564 North 363 418 20,900 -1,000 Descending Miami Center
Thu 12:07:00 PM 27.5443 -81.7507 North  Level FlightAware Approximate
Thu 12:07:51 PM 27.6244 -81.7550 North 350 403 18,800  Level Miami Center
Thu 12:08:51 PM 27.7269 -81.7525 North 343 395 16,700 -2,221 Descending Miami Center
Thu 12:10:25 PM 27.8667 -81.7500 North 345 397 13,100 -1,442 Descending Orlando TRACON
Thu 12:11:25 PM 27.9667 -81.7167 16° North 320 368 13,000 -571 Descending Orlando TRACON
Thu 12:12:31 PM 28.0500 -81.6667 28° Northeast 319 367 11,900 -992 Descending Orlando TRACON
Thu 12:13:32 PM 28.1333 -81.6167 28° Northeast 315 362 10,900 -1,000 Descending Orlando TRACON
Thu 12:14:31 PM 28.2000 -81.5833 24° Northeast 289 333 9,900 -1,000 Descending Orlando TRACON
Thu 12:15:26 PM 28.2500 -81.5333 41° Northeast 276 318 9,000 -470 Descending Orlando TRACON
Thu 12:16:26 PM 28.3000 -81.4667 50° Northeast 278 320 9,000  Level Orlando TRACON
Thu 12:17:32 PM 28.3667 -81.4167 33° Northeast 272 313 9,000 -595 Level Orlando TRACON
Thu 12:18:27 PM 28.4333 -81.4167 360° North 267 307 7,800 -1,289 Descending Orlando TRACON
Thu 12:19:33 PM 28.5167 -81.4167 360° North 230 265 6,400 -1,476 Descending Orlando TRACON
Thu 12:20:33 PM 28.5833 -81.4167 360° North 225 259 4,700 -1,619 Descending Orlando TRACON
Thu 12:21:39 PM 28.6167 -81.3667 53° Northeast 223 257 3,000 -1,048 Descending Orlando TRACON
Thu 12:22:39 PM 28.5833 -81.3333 139° Southeast 183 211 2,500 -365 Descending Orlando TRACON
Thu 12:23:34 PM 28.5333 -81.3333 180° South 162 186 2,300 -793 Descending Orlando TRACON
Thu 12:24:40 PM 28.4833 -81.3333 180° South 145 167 900 -1,273 Descending Orlando TRACON

Login

Don't have an account? Register now (free) for customized features, flight alerts, and more!